Culp Creek, Oregon
Current Conditions -  °F | °C
As of 11:54 PM on Saturday 22 Nov 2014 (Local Time) from KEUG Reporting Station
Scattered Clouds Scattered Clouds  
Wind Chill: 40°   Ceiling: Unl
Heat Index: 43°   Visibility: 10mi
Dew Point: 40°   Wind: 5mph
Humidity: 89%   Direction: 170°S
Pressure: 30.31"   Gusts: NA
Location:  43.7°N, 122.85°W
Report Text: KEUG 230754Z AUTO 17004KT 10SM FEW034 SCT043 06/04 A3031 RMK AO2 RAE0658 SLP265 P0000 T00610044 401330039
Loading
Personal Weather Stations






























Interactive Weather Map New forecast layout! Learn more

10-Day Weather Forecast

Advertisements
Track Severe Weather on mobile